createdAt,value
2018-07-12T00:00:29.410Z,12.04
2018-07-12T00:01:29.433Z,11.96
2018-07-12T00:02:29.447Z,12.04
2018-07-12T00:03:29.463Z,12.01
2018-07-12T00:04:29.484Z,11.96
2018-07-12T00:05:29.500Z,11.94
2018-07-12T00:06:29.517Z,11.95
2018-07-12T00:07:29.535Z,11.96
2018-07-12T00:08:29.554Z,11.90
2018-07-12T00:09:29.572Z,11.94
2018-07-12T00:10:29.587Z,11.94
2018-07-12T00:11:29.606Z,11.86
2018-07-12T00:12:29.624Z,11.82
2018-07-12T00:13:29.641Z,11.86
2018-07-12T00:14:29.660Z,11.85
2018-07-12T00:15:29.679Z,11.86
2018-07-12T00:16:29.697Z,11.86
2018-07-12T00:17:29.712Z,11.78
2018-07-12T00:18:29.732Z,11.75
2018-07-12T00:19:29.749Z,11.82
2018-07-12T00:20:29.768Z,11.73
2018-07-12T00:21:29.787Z,11.82
2018-07-12T00:22:29.800Z,11.73
2018-07-12T00:23:29.818Z,11.72
2018-07-12T00:24:29.838Z,11.69
2018-07-12T00:25:29.854Z,11.64
2018-07-12T00:26:29.877Z,11.69
2018-07-12T00:27:29.891Z,11.67
2018-07-12T00:28:29.909Z,11.62
2018-07-12T00:29:29.924Z,11.60
2018-07-12T00:30:29.945Z,11.64
2018-07-12T00:31:29.964Z,11.55
2018-07-12T00:32:29.979Z,11.61
2018-07-12T00:33:29.996Z,11.62
2018-07-12T00:34:30.015Z,11.58
2018-07-12T00:35:30.033Z,11.57
2018-07-12T00:36:30.051Z,11.55
2018-07-12T00:37:30.067Z,11.57
2018-07-12T00:38:30.086Z,11.58
2018-07-12T00:39:30.103Z,11.52
2018-07-12T00:40:30.123Z,11.51
2018-07-12T00:41:30.141Z,11.43
2018-07-12T00:42:30.157Z,11.42
2018-07-12T00:43:30.175Z,11.44
2018-07-12T00:44:30.199Z,11.36
2018-07-12T00:45:30.215Z,11.47
2018-07-12T00:46:30.227Z,11.51
2018-07-12T00:47:30.245Z,11.47
2018-07-12T00:48:30.263Z,11.54
2018-07-12T00:49:30.281Z,11.57
2018-07-12T00:50:30.298Z,11.55
2018-07-12T00:51:30.317Z,11.55
2018-07-12T00:52:30.333Z,11.60
2018-07-12T00:53:30.351Z,11.55
2018-07-12T00:54:30.370Z,11.47
2018-07-12T00:55:30.390Z,11.54
2018-07-12T00:56:30.405Z,11.55
2018-07-12T00:57:30.420Z,11.57
2018-07-12T00:58:30.441Z,11.55
2018-07-12T00:59:30.456Z,11.61
2018-07-12T01:00:30.474Z,11.58
2018-07-12T01:01:30.490Z,11.47
2018-07-12T01:02:30.509Z,11.49
2018-07-12T01:03:30.527Z,11.49
2018-07-12T01:04:30.544Z,11.46
2018-07-12T01:05:30.561Z,11.44
2018-07-12T01:06:30.582Z,11.43
2018-07-12T01:07:30.597Z,11.44
2018-07-12T01:08:30.617Z,11.42
2018-07-12T01:09:30.632Z,11.44
2018-07-12T01:10:30.650Z,11.46
2018-07-12T01:11:30.669Z,11.37
2018-07-12T01:12:30.687Z,11.33
2018-07-12T01:13:30.703Z,11.43
2018-07-12T01:14:30.720Z,11.37
2018-07-12T01:15:30.737Z,11.46
2018-07-12T01:16:30.756Z,11.42
2018-07-12T01:17:30.772Z,11.39
2018-07-12T01:18:30.791Z,11.25
2018-07-12T01:19:30.807Z,11.37
2018-07-12T01:20:30.824Z,11.32
2018-07-12T01:21:30.842Z,11.14
2018-07-12T01:22:30.860Z,11.25
2018-07-12T01:23:30.878Z,11.18
2018-07-12T01:24:30.895Z,11.24
2018-07-12T01:25:30.911Z,11.11
2018-07-12T01:26:30.928Z,11.17
2018-07-12T01:27:30.948Z,11.14
2018-07-12T01:28:30.964Z,11.14
2018-07-12T01:29:30.980Z,11.18
2018-07-12T01:30:30.997Z,11.10
2018-07-12T01:31:31.016Z,11.15
2018-07-12T01:32:31.033Z,11.18
2018-07-12T01:33:31.051Z,11.17
2018-07-12T01:34:31.068Z,11.11
2018-07-12T01:35:31.085Z,11.11
2018-07-12T01:36:31.104Z,11.04
2018-07-12T01:37:31.119Z,11.10
2018-07-12T01:38:31.137Z,10.99
2018-07-12T01:39:31.154Z,11.00
2018-07-12T01:40:31.171Z,11.00
2018-07-12T01:41:31.188Z,11.00
2018-07-12T01:42:31.205Z,11.02
2018-07-12T01:43:31.224Z,11.03
2018-07-12T01:44:31.241Z,11.04
2018-07-12T01:45:31.259Z,10.92
2018-07-12T01:46:31.274Z,11.04
2018-07-12T01:47:31.298Z,10.94
2018-07-12T01:48:31.310Z,10.91
2018-07-12T01:49:31.326Z,11.02
2018-07-12T01:50:31.345Z,10.91
2018-07-12T01:51:31.365Z,11.03
2018-07-12T01:52:31.379Z,11.02
2018-07-12T01:53:31.395Z,10.99
2018-07-12T01:54:31.413Z,10.97
2018-07-12T01:55:31.431Z,11.07
2018-07-12T01:56:31.449Z,11.03
2018-07-12T01:57:31.466Z,10.92
2018-07-12T01:58:31.485Z,10.92
2018-07-12T01:59:31.500Z,10.94
2018-07-12T02:00:31.550Z,10.96
2018-07-12T02:01:31.535Z,11.04
2018-07-12T02:02:31.555Z,10.92
2018-07-12T02:03:31.569Z,10.99
2018-07-12T02:04:31.588Z,10.89
2018-07-12T02:05:31.602Z,10.94
2018-07-12T02:06:31.618Z,11.03
2018-07-12T02:07:31.638Z,10.92
2018-07-12T02:08:31.654Z,11.00
2018-07-12T02:09:31.669Z,10.94
2018-07-12T02:10:31.689Z,10.94
2018-07-12T02:11:31.706Z,11.02
2018-07-12T02:12:31.723Z,11.03
2018-07-12T02:13:31.738Z,10.91
2018-07-12T02:14:31.759Z,10.85
2018-07-12T02:15:31.773Z,10.84
2018-07-12T02:16:31.790Z,10.91
2018-07-12T02:17:31.808Z,10.82
2018-07-12T02:18:31.826Z,10.91
2018-07-12T02:19:31.843Z,10.92
2018-07-12T02:20:31.859Z,10.84
2018-07-12T02:21:31.875Z,10.84
2018-07-12T02:22:31.896Z,10.86
2018-07-12T02:23:31.910Z,10.85
2018-07-12T02:24:31.931Z,10.84
2018-07-12T02:25:31.945Z,10.85
2018-07-12T02:26:31.961Z,10.76
2018-07-12T02:27:32.041Z,10.91
2018-07-12T02:28:31.998Z,10.84
2018-07-12T02:29:32.012Z,10.85
2018-07-12T02:30:32.031Z,10.81
2018-07-12T02:31:32.048Z,10.86
2018-07-12T02:32:32.067Z,10.84
2018-07-12T02:33:32.083Z,10.73
2018-07-12T02:34:32.098Z,10.81
2018-07-12T02:35:32.123Z,10.78
2018-07-12T02:36:32.133Z,10.78
2018-07-12T02:37:32.149Z,10.81
2018-07-12T02:38:32.166Z,10.82
2018-07-12T02:39:32.183Z,10.76
2018-07-12T02:40:32.200Z,10.81
2018-07-12T02:41:32.220Z,10.78
2018-07-12T02:42:32.235Z,10.78
2018-07-12T02:43:32.257Z,10.74
2018-07-12T02:44:32.272Z,10.74
2018-07-12T02:45:32.291Z,10.81
2018-07-12T02:46:32.307Z,10.73
2018-07-12T02:47:32.319Z,10.81
2018-07-12T02:48:32.339Z,10.70
2018-07-12T02:49:32.352Z,10.81
2018-07-12T02:50:32.372Z,10.84
2018-07-12T02:51:32.386Z,10.70
2018-07-12T02:52:32.404Z,10.70
2018-07-12T02:53:32.420Z,10.68
2018-07-12T02:54:32.437Z,10.61
2018-07-12T02:55:32.454Z,10.61
2018-07-12T02:56:32.472Z,10.64
2018-07-12T02:57:32.492Z,10.64
2018-07-12T02:58:32.511Z,10.64
2018-07-12T02:59:32.524Z,10.67
2018-07-12T03:00:32.538Z,10.71
2018-07-12T03:01:32.555Z,10.70
2018-07-12T03:02:32.576Z,10.68
2018-07-12T03:03:32.590Z,10.64
2018-07-12T03:04:32.606Z,10.70
2018-07-12T03:05:32.625Z,10.61
2018-07-12T03:06:32.641Z,10.66
2018-07-12T03:07:32.657Z,10.63
2018-07-12T03:08:32.674Z,10.68
2018-07-12T03:09:32.690Z,10.59
2018-07-12T03:10:32.709Z,10.59
2018-07-12T03:11:32.728Z,10.60
2018-07-12T03:12:32.742Z,10.60
2018-07-12T03:13:32.755Z,10.59
2018-07-12T03:14:32.774Z,10.56
2018-07-12T03:15:32.793Z,10.59
2018-07-12T03:16:32.807Z,10.68
2018-07-12T03:17:32.824Z,10.70
2018-07-12T03:18:32.843Z,10.68
2018-07-12T03:19:32.860Z,10.59
2018-07-12T03:20:32.879Z,10.60
2018-07-12T03:21:32.894Z,10.59
2018-07-12T03:22:32.908Z,10.55
2018-07-12T03:23:32.924Z,10.55
2018-07-12T03:24:32.945Z,10.59
2018-07-12T03:25:32.957Z,10.56
2018-07-12T03:26:32.975Z,10.53
2018-07-12T03:27:32.992Z,10.53
2018-07-12T03:28:33.012Z,10.55
2018-07-12T03:29:33.025Z,10.44
2018-07-12T03:30:33.047Z,10.59
2018-07-12T03:31:33.059Z,10.56
2018-07-12T03:32:33.078Z,10.52
2018-07-12T03:33:33.128Z,10.52
2018-07-12T03:34:33.108Z,10.51
2018-07-12T03:35:33.125Z,10.47
2018-07-12T03:36:33.142Z,10.53
2018-07-12T03:37:33.157Z,10.41
2018-07-12T03:38:33.174Z,10.48
2018-07-12T03:39:33.194Z,10.40
2018-07-12T03:40:33.268Z,10.48
2018-07-12T03:41:33.226Z,10.40
2018-07-12T03:42:33.242Z,10.48
2018-07-12T03:43:33.257Z,10.32
2018-07-12T03:44:33.274Z,10.44
2018-07-12T03:45:33.293Z,10.32
2018-07-12T03:46:33.310Z,10.34
2018-07-12T03:47:33.325Z,10.29
2018-07-12T03:48:33.342Z,10.32
2018-07-12T03:49:33.358Z,10.36
2018-07-12T03:50:33.374Z,10.34
2018-07-12T03:51:33.389Z,10.30
2018-07-12T03:52:33.406Z,10.33
2018-07-12T03:53:33.423Z,10.34
2018-07-12T03:54:33.440Z,10.41
2018-07-12T03:55:33.457Z,10.36
2018-07-12T03:56:33.473Z,10.32
2018-07-12T03:57:33.488Z,10.38
2018-07-12T03:58:33.506Z,10.36
2018-07-12T03:59:33.524Z,10.36
2018-07-12T04:00:33.540Z,10.38
2018-07-12T04:01:33.555Z,10.34
2018-07-12T04:02:33.577Z,10.33
2018-07-12T04:03:33.630Z,10.40
2018-07-12T04:04:33.605Z,10.38
2018-07-12T04:05:33.624Z,10.34
2018-07-12T04:06:33.639Z,10.34
2018-07-12T04:07:33.655Z,10.42
2018-07-12T04:08:33.673Z,10.34
2018-07-12T04:09:33.689Z,10.34
2018-07-12T04:10:33.705Z,10.36
2018-07-12T04:11:33.722Z,10.40
2018-07-12T04:12:33.738Z,10.36
2018-07-12T04:13:33.754Z,10.30
2018-07-12T04:14:33.769Z,10.30
2018-07-12T04:15:33.786Z,10.30
2018-07-12T04:16:33.802Z,10.33
2018-07-12T04:17:33.819Z,10.27
2018-07-12T04:18:33.836Z,10.25
2018-07-12T04:19:33.851Z,10.27
2018-07-12T04:20:33.869Z,10.26
2018-07-12T04:21:33.889Z,10.29
2018-07-12T04:22:33.901Z,10.25
2018-07-12T04:23:33.920Z,10.26
2018-07-12T04:24:33.936Z,10.29
2018-07-12T04:25:33.952Z,10.34
2018-07-12T04:26:33.968Z,10.34
2018-07-12T04:27:33.984Z,10.33
2018-07-12T04:28:34.002Z,10.32
2018-07-12T04:29:34.018Z,10.26
2018-07-12T04:30:34.034Z,10.32
2018-07-12T04:31:34.049Z,10.27
2018-07-12T04:32:34.069Z,10.20
2018-07-12T04:33:34.080Z,10.29
2018-07-12T04:34:34.125Z,10.27
2018-07-12T04:35:34.115Z,10.27
2018-07-12T04:36:34.132Z,10.33
2018-07-12T04:37:34.147Z,10.25
2018-07-12T04:38:34.164Z,10.27
2018-07-12T04:39:34.180Z,10.32
2018-07-12T04:40:34.196Z,10.23
2018-07-12T04:41:34.213Z,10.27
2018-07-12T04:42:34.228Z,10.29
2018-07-12T04:43:34.245Z,10.26
2018-07-12T04:44:34.263Z,10.29
2018-07-12T04:45:34.277Z,10.29
2018-07-12T04:46:34.295Z,10.33
2018-07-12T04:47:34.312Z,10.15
2018-07-12T04:48:34.327Z,10.20
2018-07-12T04:49:34.344Z,10.25
2018-07-12T04:50:34.359Z,10.25
2018-07-12T04:51:34.377Z,10.29
2018-07-12T04:52:34.395Z,10.32
2018-07-12T04:53:34.408Z,10.25
2018-07-12T04:54:34.425Z,10.30
2018-07-12T04:55:34.440Z,10.29
2018-07-12T04:56:34.458Z,10.23
2018-07-12T04:57:34.474Z,10.26
2018-07-12T04:58:34.554Z,10.18
2018-07-12T04:59:34.506Z,10.11
2018-07-12T05:00:34.525Z,10.18
2018-07-12T05:01:34.541Z,10.20
2018-07-12T05:02:34.555Z,10.12
2018-07-12T05:03:34.571Z,10.15
2018-07-12T05:04:34.588Z,10.09
2018-07-12T05:05:34.602Z,10.07
2018-07-12T05:06:34.619Z,10.15
2018-07-12T05:07:34.637Z,10.18
2018-07-12T05:08:34.652Z,10.12
2018-07-12T05:09:34.669Z,10.11
2018-07-12T05:10:34.685Z,10.15
2018-07-12T05:11:34.703Z,10.15
2018-07-12T05:12:34.716Z,10.17
2018-07-12T05:13:34.735Z,10.09
2018-07-12T05:14:34.749Z,10.15
2018-07-12T05:15:34.768Z,10.18
2018-07-12T05:16:34.783Z,10.25
2018-07-12T05:17:34.799Z,10.25
2018-07-12T05:18:34.818Z,10.32
2018-07-12T05:19:34.830Z,10.26
2018-07-12T05:20:34.849Z,10.23
2018-07-12T05:21:34.861Z,10.36
2018-07-12T05:22:34.880Z,10.27
2018-07-12T05:23:34.897Z,10.17
2018-07-12T05:24:34.911Z,10.27
2018-07-12T05:25:34.926Z,10.32
2018-07-12T05:26:34.944Z,10.34
2018-07-12T05:27:34.959Z,10.32
2018-07-12T05:28:34.977Z,10.32
2018-07-12T05:29:34.989Z,10.36
2018-07-12T05:30:35.007Z,10.34
2018-07-12T05:31:35.024Z,10.29
2018-07-12T05:32:35.039Z,10.33
2018-07-12T05:33:35.057Z,10.38
2018-07-12T05:34:35.071Z,10.36
2018-07-12T05:35:35.090Z,10.41
2018-07-12T05:36:35.105Z,10.40
2018-07-12T05:37:35.123Z,10.47
2018-07-12T05:38:35.139Z,10.48
2018-07-12T05:39:35.153Z,10.45
2018-07-12T05:40:35.176Z,10.47
2018-07-12T05:41:35.184Z,10.51
2018-07-12T05:42:35.201Z,10.53
2018-07-12T05:43:35.219Z,10.53
2018-07-12T05:44:35.234Z,10.60
2018-07-12T05:45:35.252Z,10.55
2018-07-12T05:46:35.280Z,10.68
2018-07-12T05:47:35.284Z,10.64
2018-07-12T05:48:35.300Z,10.68
2018-07-12T05:49:35.314Z,10.76
2018-07-12T05:50:35.335Z,10.76
2018-07-12T05:51:35.349Z,10.79
2018-07-12T05:52:35.364Z,10.79
2018-07-12T05:53:35.382Z,10.89
2018-07-12T05:54:35.397Z,10.86
2018-07-12T05:55:35.414Z,10.89
2018-07-12T05:56:35.432Z,10.91
2018-07-12T05:57:35.522Z,11.02
2018-07-12T05:58:35.462Z,10.94
2018-07-12T05:59:35.478Z,11.02
2018-07-12T06:00:35.502Z,10.91
2018-07-12T06:01:35.514Z,10.88
2018-07-12T06:02:35.530Z,10.88
2018-07-12T06:03:35.544Z,10.94
2018-07-12T06:04:35.560Z,10.94
2018-07-12T06:05:35.583Z,10.96
2018-07-12T06:06:35.594Z,10.94
2018-07-12T06:07:35.610Z,11.00
2018-07-12T06:08:35.627Z,10.91
2018-07-12T06:09:35.643Z,10.96
2018-07-12T06:10:35.661Z,10.91
2018-07-12T06:11:35.678Z,10.89
2018-07-12T06:12:35.697Z,10.96
2018-07-12T06:13:35.711Z,10.96
2018-07-12T06:14:35.726Z,11.07
2018-07-12T06:15:35.746Z,10.99
2018-07-12T06:16:35.759Z,11.04
2018-07-12T06:17:35.777Z,10.99
2018-07-12T06:18:35.794Z,11.02
2018-07-12T06:19:35.808Z,11.03
2018-07-12T06:20:35.826Z,11.06
2018-07-12T06:21:35.839Z,11.04
2018-07-12T06:22:35.858Z,11.14
2018-07-12T06:23:35.875Z,11.10
2018-07-12T06:24:35.952Z,11.15
2018-07-12T06:25:35.908Z,11.17
2018-07-12T06:26:35.924Z,11.11
2018-07-12T06:27:35.941Z,11.19
2018-07-12T06:28:35.958Z,11.29
2018-07-12T06:29:35.972Z,11.36
2018-07-12T06:30:35.991Z,11.39
2018-07-12T06:31:36.005Z,11.40
2018-07-12T06:32:36.021Z,11.44
2018-07-12T06:33:36.037Z,11.49
2018-07-12T06:34:36.055Z,11.49
2018-07-12T06:35:36.071Z,11.47
2018-07-12T06:36:36.086Z,11.60
2018-07-12T06:37:36.103Z,11.62
2018-07-12T06:38:36.118Z,11.62
2018-07-12T06:39:36.136Z,11.65
2018-07-12T06:40:36.152Z,11.70
2018-07-12T06:41:36.169Z,11.65
2018-07-12T06:42:36.222Z,11.64
2018-07-12T06:43:36.203Z,11.67
2018-07-12T06:44:36.221Z,11.64
2018-07-12T06:45:36.239Z,11.64
2018-07-12T06:46:36.255Z,11.64
2018-07-12T06:47:36.268Z,11.78
2018-07-12T06:48:36.287Z,11.82
2018-07-12T06:49:36.300Z,11.69
2018-07-12T06:50:36.317Z,11.67
2018-07-12T06:51:36.334Z,11.86
2018-07-12T06:52:36.350Z,11.86
2018-07-12T06:53:36.367Z,11.91
2018-07-12T06:54:36.383Z,11.94
2018-07-12T06:55:36.401Z,11.96
2018-07-12T06:56:36.419Z,12.12
2018-07-12T06:57:36.433Z,11.96
2018-07-12T06:58:36.450Z,11.98
2018-07-12T06:59:36.467Z,11.99
2018-07-12T07:00:36.554Z,11.96
2018-07-12T07:01:36.500Z,12.01
2018-07-12T07:02:36.517Z,12.07
2018-07-12T07:03:36.535Z,12.10
2018-07-12T07:04:36.549Z,12.17
2018-07-12T07:05:36.564Z,12.31
2018-07-12T07:06:36.582Z,12.19
2018-07-12T07:07:36.599Z,12.23
2018-07-12T07:08:36.618Z,12.01
2018-07-12T07:09:36.637Z,12.04
2018-07-12T07:10:36.649Z,12.07
2018-07-12T07:11:36.668Z,12.09
2018-07-12T07:12:36.684Z,12.10
2018-07-12T07:13:36.702Z,12.20
2018-07-12T07:14:36.757Z,12.31
2018-07-12T07:15:36.734Z,12.38
2018-07-12T07:16:36.748Z,12.47
2018-07-12T07:17:36.766Z,12.38
2018-07-12T07:18:36.783Z,12.67
2018-07-12T07:19:36.799Z,12.53
2018-07-12T07:20:36.815Z,12.39
2018-07-12T07:21:36.831Z,12.59
2018-07-12T07:22:36.852Z,12.62
2018-07-12T07:23:36.867Z,12.65
2018-07-12T07:24:36.881Z,12.62
2018-07-12T07:25:36.906Z,12.67
2018-07-12T07:26:36.915Z,12.67
2018-07-12T07:27:36.931Z,12.62
2018-07-12T07:28:36.949Z,12.65
2018-07-12T07:29:36.965Z,12.68
2018-07-12T07:30:36.981Z,12.62
2018-07-12T07:31:37.004Z,12.74
2018-07-12T07:32:37.020Z,12.85
2018-07-12T07:33:37.033Z,12.95
2018-07-12T07:34:37.048Z,13.11
2018-07-12T07:35:37.145Z,13.12
2018-07-12T07:36:37.083Z,13.08
2018-07-12T07:37:37.102Z,13.05
2018-07-12T07:38:37.117Z,13.11
2018-07-12T07:39:37.134Z,12.95
2018-07-12T07:40:37.151Z,13.00
2018-07-12T07:41:37.169Z,13.14
2018-07-12T07:42:37.187Z,13.26
2018-07-12T07:43:37.202Z,13.25
2018-07-12T07:44:37.219Z,13.30
2018-07-12T07:45:37.236Z,13.45
2018-07-12T07:46:37.253Z,13.41
2018-07-12T07:47:37.271Z,13.67
2018-07-12T07:48:37.292Z,13.73
2018-07-12T07:49:37.303Z,13.73
2018-07-12T07:50:37.320Z,13.95
2018-07-12T07:51:37.338Z,13.88
2018-07-12T07:52:37.355Z,13.85
2018-07-12T07:53:37.374Z,14.04
2018-07-12T07:54:37.390Z,13.92
2018-07-12T07:55:37.410Z,13.82
2018-07-12T07:56:37.424Z,13.75
2018-07-12T07:57:37.441Z,13.66
2018-07-12T07:58:37.460Z,13.69
2018-07-12T07:59:37.477Z,13.71
2018-07-12T08:00:37.498Z,13.81
2018-07-12T08:01:37.511Z,13.87
2018-07-12T08:02:37.532Z,13.89
2018-07-12T08:03:37.548Z,14.09
2018-07-12T08:04:37.565Z,14.28
2018-07-12T08:05:37.581Z,14.28
2018-07-12T08:06:37.602Z,14.25
2018-07-12T08:07:37.618Z,14.18
2018-07-12T08:08:37.634Z,14.43
2018-07-12T08:09:37.764Z,14.61
2018-07-12T08:10:37.671Z,14.45
2018-07-12T08:11:37.689Z,14.52
2018-07-12T08:12:37.705Z,14.29
2018-07-12T08:13:37.722Z,14.25
2018-07-12T08:14:37.743Z,14.35
2018-07-12T08:15:37.758Z,14.43
2018-07-12T08:16:37.786Z,14.62
2018-07-12T08:17:37.792Z,14.61
2018-07-12T08:18:37.812Z,14.15
2018-07-12T08:19:37.829Z,14.18
2018-07-12T08:20:37.847Z,14.17
2018-07-12T08:21:37.866Z,14.35
2018-07-12T08:22:37.882Z,14.29
2018-07-12T08:23:37.968Z,14.43
2018-07-12T08:24:37.922Z,14.39
2018-07-12T08:25:37.936Z,14.43
2018-07-12T08:26:37.955Z,14.45
2018-07-12T08:27:37.972Z,14.28
2018-07-12T08:28:37.990Z,14.24
2018-07-12T08:29:38.009Z,14.18
2018-07-12T08:30:38.027Z,14.17
2018-07-12T08:31:38.045Z,14.24
2018-07-12T08:32:38.063Z,14.28
2018-07-12T08:33:38.080Z,14.29
2018-07-12T08:34:38.098Z,14.25
2018-07-12T08:35:38.119Z,14.27
2018-07-12T08:36:38.138Z,14.35
2018-07-12T08:37:38.152Z,14.28
2018-07-12T08:38:38.169Z,14.52
2018-07-12T08:39:38.188Z,14.39
2018-07-12T08:40:38.238Z,14.29
2018-07-12T08:41:38.224Z,14.45
2018-07-12T08:42:38.247Z,14.46
2018-07-12T08:43:38.265Z,14.51
2018-07-12T08:44:38.279Z,14.81
2018-07-12T08:45:38.298Z,14.80
2018-07-12T08:46:38.315Z,14.77
2018-07-12T08:47:38.334Z,14.86
2018-07-12T08:48:38.352Z,15.13
2018-07-12T08:49:38.370Z,15.35
2018-07-12T08:50:38.389Z,15.62
2018-07-12T08:51:38.407Z,15.53
2018-07-12T08:52:38.425Z,15.44
2018-07-12T08:53:38.442Z,15.44
2018-07-12T08:54:38.512Z,15.67
2018-07-12T08:55:38.482Z,15.59
2018-07-12T08:56:38.499Z,15.43
2018-07-12T08:57:38.517Z,15.51
2018-07-12T08:58:38.535Z,15.35
2018-07-12T08:59:38.553Z,15.74
2018-07-12T09:00:38.578Z,15.83
2018-07-12T09:01:38.589Z,15.68
2018-07-12T09:02:38.685Z,15.71
2018-07-12T09:03:38.632Z,15.83
2018-07-12T09:04:38.646Z,15.59
2018-07-12T09:05:38.666Z,15.54
2018-07-12T09:06:38.684Z,15.56
2018-07-12T09:07:38.706Z,15.57
2018-07-12T09:08:38.725Z,15.53
2018-07-12T09:09:38.739Z,15.49
2018-07-12T09:10:38.757Z,15.54
2018-07-12T09:11:38.776Z,15.60
2018-07-12T09:12:38.809Z,15.69
2018-07-12T09:13:38.814Z,15.84
2018-07-12T09:14:38.834Z,15.94
2018-07-12T09:15:38.904Z,16.23
2018-07-12T09:16:38.872Z,16.27
2018-07-12T09:17:38.891Z,16.09
2018-07-12T09:18:38.910Z,15.71
2018-07-12T09:19:38.930Z,16.08
2018-07-12T09:20:38.947Z,16.07
2018-07-12T09:21:39.009Z,15.86
2018-07-12T09:22:38.986Z,15.78
2018-07-12T09:23:39.003Z,15.94
2018-07-12T09:24:39.024Z,15.83
2018-07-12T09:25:39.047Z,15.65
2018-07-12T09:26:39.063Z,16.02
2018-07-12T09:27:39.081Z,16.15
2018-07-12T09:28:39.101Z,16.27
2018-07-12T09:29:39.119Z,16.66
2018-07-12T09:30:39.140Z,17.01
2018-07-12T09:31:39.160Z,17.00
2018-07-12T09:32:39.175Z,16.97
2018-07-12T09:33:39.194Z,17.04
2018-07-12T09:34:39.214Z,17.00
2018-07-12T09:35:39.234Z,16.97
2018-07-12T09:36:39.251Z,16.58
2018-07-12T09:37:39.272Z,16.45
2018-07-12T09:38:39.291Z,17.01
2018-07-12T09:39:39.352Z,16.73
2018-07-12T09:40:39.330Z,16.76
2018-07-12T09:41:39.349Z,16.75
2018-07-12T09:42:39.366Z,17.01
2018-07-12T09:43:39.388Z,17.18
2018-07-12T09:44:39.407Z,17.38
2018-07-12T09:45:39.426Z,17.31
2018-07-12T09:46:39.448Z,17.58
2018-07-12T09:47:39.480Z,17.66
2018-07-12T09:48:39.484Z,17.77
2018-07-12T09:49:39.504Z,17.78
2018-07-12T09:50:39.522Z,18.00
2018-07-12T09:51:39.547Z,18.26
2018-07-12T09:52:39.564Z,18.48
2018-07-12T09:53:39.582Z,18.51
2018-07-12T09:54:39.609Z,18.60
2018-07-12T09:55:39.712Z,18.41
2018-07-12T09:56:39.788Z,18.44
2018-07-12T09:57:39.665Z,18.47
2018-07-12T09:58:39.685Z,18.70
2018-07-12T09:59:39.705Z,18.39
2018-07-12T10:00:39.726Z,18.51
2018-07-12T10:01:39.746Z,18.41
2018-07-12T10:02:39.767Z,18.67
2018-07-12T10:03:39.787Z,18.67
2018-07-12T10:04:39.806Z,18.84
2018-07-12T10:05:39.872Z,18.41
2018-07-12T10:06:39.849Z,17.68
2018-07-12T10:07:39.868Z,17.77
2018-07-12T10:08:39.887Z,17.68
2018-07-12T10:09:39.909Z,18.12
2018-07-12T10:10:40.035Z,18.27
2018-07-12T10:11:39.948Z,18.41
2018-07-12T10:12:39.969Z,18.72
2018-07-12T10:13:39.988Z,18.27
2018-07-12T10:14:40.011Z,18.41
2018-07-12T10:15:40.031Z,18.70
2018-07-12T10:16:40.051Z,18.73
2018-07-12T10:17:40.172Z,19.02
2018-07-12T10:18:40.098Z,19.22
2018-07-12T10:19:40.117Z,19.26
2018-07-12T10:20:40.134Z,19.28
2018-07-12T10:21:40.158Z,19.08
2018-07-12T10:22:40.175Z,19.26
2018-07-12T10:23:40.197Z,19.29
2018-07-12T10:24:40.222Z,18.98
2018-07-12T10:25:40.236Z,18.05
2018-07-12T10:26:40.259Z,18.39
2018-07-12T10:27:40.280Z,18.50
2018-07-12T10:28:40.300Z,18.20
2018-07-12T10:29:40.370Z,18.26
2018-07-12T10:30:40.346Z,18.62
2018-07-12T10:31:40.361Z,18.41
2018-07-12T10:32:40.383Z,18.72
2018-07-12T10:33:40.403Z,18.75
2018-07-12T10:34:40.425Z,19.00
2018-07-12T10:35:40.446Z,19.10
2018-07-12T10:36:40.469Z,18.42
2018-07-12T10:37:40.486Z,18.55
2018-07-12T10:38:40.508Z,18.72
2018-07-12T10:39:40.529Z,19.21
2018-07-12T10:40:40.551Z,19.74
2018-07-12T10:41:40.570Z,19.36
2018-07-12T10:42:40.594Z,18.82
2018-07-12T10:43:40.613Z,18.99
2018-07-12T10:44:40.634Z,19.02
2018-07-12T10:45:40.656Z,19.78
2018-07-12T10:46:40.677Z,20.18
2018-07-12T10:47:40.699Z,20.39
2018-07-12T10:48:40.720Z,20.33
2018-07-12T10:49:40.742Z,19.92
2018-07-12T10:50:40.763Z,20.10
2018-07-12T10:51:40.786Z,20.50
2018-07-12T10:52:40.805Z,20.59
2018-07-12T10:53:40.827Z,20.47
2018-07-12T10:54:40.851Z,20.23
2018-07-12T10:55:40.874Z,20.48
2018-07-12T10:56:40.894Z,20.47
2018-07-12T10:57:40.914Z,20.21
2018-07-12T10:58:40.936Z,19.48
2018-07-12T10:59:40.958Z,19.50
2018-07-12T11:00:40.982Z,19.48
2018-07-12T11:01:41.003Z,19.43
2018-07-12T11:02:41.024Z,19.65
2018-07-12T11:03:41.047Z,19.71
2018-07-12T11:04:41.139Z,19.86
2018-07-12T11:05:41.091Z,20.01
2018-07-12T11:06:41.113Z,20.13
2018-07-12T11:07:41.136Z,20.17
2018-07-12T11:08:41.159Z,20.03
2018-07-12T11:09:41.180Z,20.28
2018-07-12T11:10:41.203Z,20.52
2018-07-12T11:11:41.227Z,20.97
2018-07-12T11:12:41.249Z,20.70
2018-07-12T11:13:41.272Z,20.98
2018-07-12T11:14:41.296Z,20.95
2018-07-12T11:15:41.345Z,20.87
2018-07-12T11:16:41.341Z,20.70
2018-07-12T11:17:41.365Z,21.04
2018-07-12T11:18:41.386Z,20.72
2018-07-12T11:19:41.408Z,20.16
2018-07-12T11:20:41.431Z,20.10
2018-07-12T11:21:41.453Z,19.95
2018-07-12T11:22:41.475Z,19.59
2018-07-12T11:23:41.501Z,19.59
2018-07-12T11:24:41.524Z,20.02
2018-07-12T11:25:41.552Z,20.52
2018-07-12T11:26:41.570Z,20.88
2018-07-12T11:27:41.591Z,21.17
2018-07-12T11:28:41.613Z,21.56
2018-07-12T11:29:41.639Z,21.29
2018-07-12T11:30:41.659Z,21.21
2018-07-12T11:31:41.683Z,20.79
2018-07-12T11:32:41.704Z,21.03
2018-07-12T11:33:41.726Z,21.42
2018-07-12T11:34:41.750Z,21.84
2018-07-12T11:35:41.774Z,21.79
2018-07-12T11:36:41.796Z,21.91
2018-07-12T11:37:41.819Z,21.82
2018-07-12T11:38:41.842Z,22.22
2018-07-12T11:39:41.867Z,21.86
2018-07-12T11:40:41.893Z,21.96
2018-07-12T11:41:41.913Z,22.28
2018-07-12T11:42:41.937Z,22.43
2018-07-12T11:43:41.961Z,22.31
2018-07-12T11:44:42.038Z,22.20
2018-07-12T11:45:42.009Z,22.20
2018-07-12T11:46:42.033Z,22.33
2018-07-12T11:47:42.057Z,22.68
2018-07-12T11:48:42.081Z,22.90
2018-07-12T11:49:42.105Z,22.65
2018-07-12T11:50:42.133Z,22.36
2018-07-12T11:51:42.155Z,21.77
2018-07-12T11:52:42.193Z,21.38
2018-07-12T11:53:42.201Z,21.14
2018-07-12T11:54:42.227Z,21.16
2018-07-12T11:55:42.256Z,21.37
2018-07-12T11:56:42.276Z,21.62
2018-07-12T11:57:42.300Z,21.67
2018-07-12T11:58:42.326Z,21.43
2018-07-12T11:59:42.350Z,21.46
2018-07-12T12:00:42.375Z,21.65
2018-07-12T12:01:42.461Z,21.77
2018-07-12T12:02:42.422Z,21.46
2018-07-12T12:03:42.445Z,21.64
2018-07-12T12:04:42.471Z,21.16
2018-07-12T12:05:42.494Z,21.13
2018-07-12T12:06:42.518Z,21.28
2018-07-12T12:07:42.542Z,21.28
2018-07-12T12:08:42.568Z,20.97
2018-07-12T12:09:42.590Z,20.79
2018-07-12T12:10:42.676Z,20.92
2018-07-12T12:11:42.638Z,21.42
2018-07-12T12:12:42.666Z,21.06
2018-07-12T12:13:42.685Z,21.40
2018-07-12T12:14:42.713Z,21.53
2018-07-12T12:15:42.738Z,21.17
2018-07-12T12:16:42.760Z,21.25
2018-07-12T12:17:42.782Z,21.38
2018-07-12T12:18:42.806Z,21.32
2018-07-12T12:19:42.833Z,21.65
2018-07-12T12:20:42.855Z,21.92
2018-07-12T12:21:42.878Z,21.86
2018-07-12T12:22:42.903Z,22.17
2018-07-12T12:23:42.925Z,21.80
2018-07-12T12:24:42.948Z,21.53
2018-07-12T12:25:42.973Z,21.14
2018-07-12T12:26:42.999Z,21.86
2018-07-12T12:27:43.022Z,22.33
2018-07-12T12:28:43.053Z,22.09
2018-07-12T12:29:43.069Z,21.80
2018-07-12T12:30:43.094Z,21.65
2018-07-12T12:31:43.121Z,21.65
2018-07-12T12:32:43.141Z,22.61
2018-07-12T12:33:43.165Z,22.82
2018-07-12T12:34:43.197Z,22.95
2018-07-12T12:35:43.217Z,23.13
2018-07-12T12:36:43.239Z,22.95
2018-07-12T12:37:43.263Z,23.32
2018-07-12T12:38:43.287Z,23.39
2018-07-12T12:39:43.311Z,22.57
2018-07-12T12:40:43.337Z,22.15
2018-07-12T12:41:43.362Z,22.28
2018-07-12T12:42:43.387Z,22.62
2018-07-12T12:43:43.411Z,21.88
2018-07-12T12:44:43.437Z,21.68
2018-07-12T12:45:43.458Z,21.68
2018-07-12T12:46:43.483Z,21.80
2018-07-12T12:47:43.509Z,21.84
2018-07-12T12:48:43.533Z,22.05
2018-07-12T12:49:43.556Z,21.82
2018-07-12T12:50:43.582Z,21.47
2018-07-12T12:51:43.611Z,20.61
2018-07-12T12:52:43.632Z,20.28